createdAt,value
2023-05-21T00:01:39.272Z,15.20
2023-05-21T00:04:08.646Z,15.20
2023-05-21T00:06:36.086Z,15.20
2023-05-21T00:09:04.070Z,15.20
2023-05-21T00:11:30.931Z,15.20
2023-05-21T00:13:57.950Z,15.10
2023-05-21T00:16:25.303Z,15.10
2023-05-21T00:18:54.369Z,15.10
2023-05-21T00:21:26.073Z,15.10
2023-05-21T00:23:56.626Z,15.10
2023-05-21T00:26:26.885Z,15.10
2023-05-21T00:28:53.456Z,15.10
2023-05-21T00:31:20.157Z,15.10
2023-05-21T00:33:46.745Z,15.10
2023-05-21T00:36:14.324Z,15.10
2023-05-21T00:38:43.653Z,15.10
2023-05-21T00:41:11.058Z,15.10
2023-05-21T00:43:41.915Z,15.10
2023-05-21T00:46:16.571Z,15.10
2023-05-21T00:48:45.874Z,15.00
2023-05-21T00:51:13.678Z,15.10
2023-05-21T00:53:40.917Z,15.00
2023-05-21T00:56:08.013Z,15.00
2023-05-21T00:58:35.955Z,15.00
2023-05-21T01:01:06.673Z,15.00
2023-05-21T01:03:38.737Z,14.90
2023-05-21T01:06:06.434Z,14.90
2023-05-21T01:08:34.834Z,14.90
2023-05-21T01:11:02.900Z,14.90
2023-05-21T01:13:30.421Z,14.90
2023-05-21T01:15:59.035Z,14.80
2023-05-21T01:18:26.522Z,14.80
2023-05-21T01:20:53.665Z,14.80
2023-05-21T01:23:20.811Z,14.80
2023-05-21T01:25:47.759Z,14.80
2023-05-21T01:28:14.484Z,14.80
2023-05-21T01:30:43.128Z,14.80
2023-05-21T01:33:23.227Z,14.80
2023-05-21T01:35:52.522Z,14.80
2023-05-21T01:38:24.001Z,14.80
2023-05-21T01:40:58.703Z,14.80
2023-05-21T01:43:29.202Z,14.70
2023-05-21T01:45:58.803Z,14.70
2023-05-21T01:48:29.856Z,14.70
2023-05-21T01:51:01.778Z,14.70
2023-05-21T01:53:28.491Z,14.70
2023-05-21T01:55:55.412Z,14.70
2023-05-21T01:58:22.834Z,14.70
2023-05-21T02:00:51.057Z,14.60
2023-05-21T02:03:19.299Z,14.60
2023-05-21T02:05:46.112Z,14.60
2023-05-21T02:08:15.011Z,14.60
2023-05-21T02:10:41.528Z,14.60
2023-05-21T02:13:08.139Z,14.60
2023-05-21T02:15:35.226Z,14.60
2023-05-21T02:18:02.436Z,14.50
2023-05-21T02:20:30.033Z,14.50
2023-05-21T02:22:56.901Z,14.50
2023-05-21T02:25:23.536Z,14.50
2023-05-21T02:27:53.390Z,14.50
2023-05-21T02:30:20.793Z,14.50
2023-05-21T02:32:48.998Z,14.50
2023-05-21T02:35:16.218Z,14.50
2023-05-21T02:37:44.056Z,14.40
2023-05-21T02:40:11.540Z,14.40
2023-05-21T02:42:40.125Z,14.40
2023-05-21T02:45:11.994Z,14.40
2023-05-21T02:47:39.018Z,14.40
2023-05-21T02:50:07.598Z,14.40
2023-05-21T02:52:34.297Z,14.40
2023-05-21T02:55:01.044Z,14.40
2023-05-21T02:57:27.607Z,14.40
2023-05-21T02:59:54.150Z,14.40
2023-05-21T03:02:20.939Z,14.50
2023-05-21T03:04:47.770Z,14.50
2023-05-21T03:07:15.610Z,14.40
2023-05-21T03:09:42.431Z,14.40
2023-05-21T03:12:09.522Z,14.50
2023-05-21T03:14:36.477Z,14.50
2023-05-21T03:17:05.833Z,14.50
2023-05-21T03:19:36.742Z,14.60
2023-05-21T03:22:04.531Z,14.50
2023-05-21T03:24:31.666Z,14.50
2023-05-21T03:26:59.191Z,14.50
2023-05-21T03:29:25.809Z,14.50
2023-05-21T03:31:53.919Z,14.60
2023-05-21T03:34:21.350Z,14.60
2023-05-21T03:36:48.218Z,14.60
2023-05-21T03:39:14.937Z,14.60
2023-05-21T03:41:41.679Z,14.60
2023-05-21T03:44:08.560Z,14.60
2023-05-21T03:46:35.432Z,14.60
2023-05-21T03:49:02.341Z,14.60
2023-05-21T03:51:30.316Z,14.60
2023-05-21T03:53:58.943Z,14.60
2023-05-21T03:56:26.080Z,14.60
2023-05-21T03:58:53.020Z,14.60
2023-05-21T04:01:19.785Z,14.60
2023-05-21T04:03:46.517Z,14.70
2023-05-21T04:06:13.501Z,14.70
2023-05-21T04:08:40.086Z,14.70
2023-05-21T04:11:06.728Z,14.80
2023-05-21T04:13:33.328Z,14.70
2023-05-21T04:15:59.904Z,14.70
2023-05-21T04:18:26.783Z,14.80
2023-05-21T04:20:53.758Z,14.80
2023-05-21T04:23:23.196Z,14.80
2023-05-21T04:25:50.836Z,14.80
2023-05-21T04:28:20.937Z,14.90
2023-05-21T04:30:47.957Z,14.90
2023-05-21T04:33:18.084Z,14.90
2023-05-21T04:35:49.780Z,14.90
2023-05-21T04:38:20.684Z,15.00
2023-05-21T04:40:50.807Z,15.00
2023-05-21T04:43:17.628Z,15.00
2023-05-21T04:45:44.211Z,15.00
2023-05-21T04:48:10.762Z,15.00
2023-05-21T04:50:37.317Z,15.00
2023-05-21T04:53:03.932Z,15.10
2023-05-21T04:55:30.493Z,15.10
2023-05-21T04:57:57.339Z,15.20
2023-05-21T05:00:26.182Z,15.20
2023-05-21T05:02:52.868Z,15.30
2023-05-21T05:05:19.567Z,15.30
2023-05-21T05:07:46.313Z,15.30
2023-05-21T05:10:12.922Z,15.40
2023-05-21T05:12:39.556Z,15.50
2023-05-21T05:15:06.614Z,15.60
2023-05-21T05:17:34.269Z,15.70
2023-05-21T05:20:01.120Z,15.80
2023-05-21T05:22:27.753Z,15.80
2023-05-21T05:24:54.370Z,15.90
2023-05-21T05:27:20.972Z,16.00
2023-05-21T05:29:48.344Z,16.00
2023-05-21T05:32:14.985Z,16.00
2023-05-21T05:34:42.669Z,16.00
2023-05-21T05:37:09.298Z,16.10
2023-05-21T05:39:35.970Z,16.10
2023-05-21T05:42:03.371Z,16.10
2023-05-21T05:44:30.022Z,16.20
2023-05-21T05:46:56.703Z,16.30
2023-05-21T05:49:23.281Z,16.30
2023-05-21T05:51:49.896Z,16.30
2023-05-21T05:54:16.470Z,16.40
2023-05-21T05:56:43.088Z,16.50
2023-05-21T05:59:09.707Z,16.60
2023-05-21T06:01:36.328Z,16.80
2023-05-21T06:04:02.967Z,16.90
2023-05-21T06:06:29.697Z,16.90
2023-05-21T06:08:56.308Z,17.00
2023-05-21T06:11:23.116Z,17.10
2023-05-21T06:13:49.735Z,17.30
2023-05-21T06:16:16.414Z,17.40
2023-05-21T06:18:43.050Z,17.40
2023-05-21T06:21:09.731Z,17.60
2023-05-21T06:23:37.674Z,17.70
2023-05-21T06:26:04.722Z,17.80
2023-05-21T06:28:31.306Z,17.90
2023-05-21T06:30:58.041Z,17.90
2023-05-21T06:33:24.693Z,18.10
2023-05-21T06:35:51.416Z,18.10
2023-05-21T06:38:18.046Z,18.20
2023-05-21T06:40:47.360Z,18.40
2023-05-21T06:43:14.285Z,18.60
2023-05-21T06:45:41.128Z,18.70
2023-05-21T06:48:08.019Z,18.90
2023-05-21T06:50:35.160Z,19.10
2023-05-21T06:53:01.783Z,19.20
2023-05-21T06:55:28.391Z,19.40
2023-05-21T06:57:54.994Z,19.60
2023-05-21T07:00:21.715Z,19.90
2023-05-21T07:02:48.459Z,20.20
2023-05-21T07:05:15.164Z,20.50
2023-05-21T07:07:41.784Z,20.60
2023-05-21T07:10:09.023Z,20.90
2023-05-21T07:12:35.693Z,21.20
2023-05-21T07:15:02.453Z,21.40
2023-05-21T07:17:29.190Z,21.80
2023-05-21T07:19:55.975Z,22.20
2023-05-21T07:22:22.574Z,22.60
2023-05-21T07:24:49.179Z,23.20
2023-05-21T07:27:25.259Z,23.60
2023-05-21T07:29:52.926Z,24.00
2023-05-21T07:32:19.638Z,24.40
2023-05-21T07:34:46.994Z,24.80
2023-05-21T07:37:14.081Z,25.20
2023-05-21T07:39:40.929Z,25.60
2023-05-21T07:42:07.621Z,25.60
2023-05-21T07:44:34.288Z,25.40
2023-05-21T07:47:01.029Z,25.30
2023-05-21T07:49:27.602Z,25.40
2023-05-21T07:51:54.189Z,25.40
2023-05-21T07:54:20.971Z,25.40
2023-05-21T07:56:47.565Z,25.60
2023-05-21T07:59:17.016Z,25.80
2023-05-21T08:01:44.091Z,26.30
2023-05-21T08:04:12.287Z,26.70
2023-05-21T08:06:38.955Z,27.10
2023-05-21T08:09:06.590Z,27.30
2023-05-21T08:11:33.302Z,27.30
2023-05-21T08:14:00.082Z,26.90
2023-05-21T08:16:26.890Z,26.80
2023-05-21T08:18:53.718Z,26.70
2023-05-21T08:21:20.693Z,26.80
2023-05-21T08:23:47.284Z,27.00
2023-05-21T08:26:16.367Z,27.50
2023-05-21T08:28:43.401Z,27.90
2023-05-21T08:31:10.192Z,28.30
2023-05-21T08:33:38.192Z,28.40
2023-05-21T08:36:06.379Z,28.50
2023-05-21T08:38:32.950Z,28.80
2023-05-21T08:40:59.798Z,28.70
2023-05-21T08:43:29.585Z,28.90
2023-05-21T08:45:59.152Z,29.20
2023-05-21T08:48:26.087Z,29.70
2023-05-21T08:50:53.706Z,29.70
2023-05-21T08:53:28.285Z,29.70
2023-05-21T08:55:56.234Z,29.10
2023-05-21T08:58:24.974Z,28.80
2023-05-21T09:00:51.810Z,28.40
2023-05-21T09:03:18.936Z,28.20
2023-05-21T09:05:45.974Z,28.90
2023-05-21T09:08:31.047Z,30.30
2023-05-21T09:10:57.694Z,32.00
2023-05-21T09:13:25.734Z,33.40
2023-05-21T09:15:52.399Z,34.50
2023-05-21T09:18:18.992Z,36.00
2023-05-21T09:20:45.726Z,36.30
2023-05-21T09:23:16.507Z,37.00
2023-05-21T09:25:47.447Z,37.10
2023-05-21T09:28:19.761Z,37.70
2023-05-21T09:30:47.937Z,38.30
2023-05-21T09:33:29.222Z,38.80
2023-05-21T09:35:56.095Z,39.40
2023-05-21T09:38:23.838Z,40.40
2023-05-21T09:40:50.636Z,40.10
2023-05-21T09:43:17.357Z,39.50
2023-05-21T09:45:55.726Z,39.50
2023-05-21T09:48:48.845Z,39.90
2023-05-21T09:51:20.489Z,40.00
2023-05-21T09:53:59.957Z,39.90
2023-05-21T09:56:31.651Z,40.20
2023-05-21T09:59:01.358Z,40.50
2023-05-21T10:01:30.433Z,40.30
2023-05-21T10:03:58.591Z,40.80
2023-05-21T10:06:27.814Z,40.40
2023-05-21T10:08:57.408Z,40.60
2023-05-21T10:11:26.970Z,40.50
2023-05-21T10:14:00.753Z,40.60
2023-05-21T10:16:29.659Z,40.50
2023-05-21T10:18:57.931Z,40.70
2023-05-21T10:21:26.074Z,41.00
2023-05-21T10:23:56.334Z,41.10
2023-05-21T10:26:24.387Z,40.50
2023-05-21T10:28:52.146Z,39.70
2023-05-21T10:31:19.736Z,39.60
2023-05-21T10:33:46.971Z,39.50
2023-05-21T10:36:17.287Z,39.60
2023-05-21T10:38:44.490Z,40.20
2023-05-21T10:41:13.541Z,40.60
2023-05-21T10:44:17.828Z,40.30
2023-05-21T10:47:21.863Z,40.70
2023-05-21T10:50:27.018Z,41.10
2023-05-21T10:53:08.777Z,40.80
2023-05-21T10:55:58.930Z,40.90
2023-05-21T10:58:39.001Z,40.10
2023-05-21T11:01:06.951Z,40.00
2023-05-21T11:03:37.239Z,39.80
2023-05-21T11:06:08.493Z,39.80
2023-05-21T11:08:36.946Z,39.50
2023-05-21T11:11:04.251Z,39.50
2023-05-21T11:13:48.993Z,39.60
2023-05-21T11:16:16.938Z,39.00
2023-05-21T11:18:46.530Z,37.80
2023-05-21T11:21:18.012Z,37.20
2023-05-21T11:23:50.718Z,37.40
2023-05-21T11:26:22.284Z,37.70
2023-05-21T11:29:31.417Z,37.10
2023-05-21T11:32:02.666Z,37.10
2023-05-21T11:34:46.865Z,37.10
2023-05-21T11:37:20.657Z,36.60
2023-05-21T11:39:48.687Z,36.30
2023-05-21T11:42:35.288Z,36.00
2023-05-21T11:45:05.839Z,35.50
2023-05-21T11:47:32.926Z,35.50
2023-05-21T11:50:03.882Z,35.30
2023-05-21T11:52:31.691Z,35.10
2023-05-21T11:54:59.753Z,35.00
2023-05-21T11:57:30.679Z,35.00
2023-05-21T12:00:01.345Z,34.70
2023-05-21T12:02:32.499Z,34.40
2023-05-21T12:05:00.010Z,33.90
2023-05-21T12:07:29.669Z,33.70
2023-05-21T12:09:56.579Z,33.50
2023-05-21T12:12:29.374Z,33.20
2023-05-21T12:15:02.465Z,33.10
2023-05-21T12:39:25.567Z,32.50
2023-05-21T12:41:54.737Z,32.20
2023-05-21T12:44:21.369Z,32.40
2023-05-21T12:46:47.957Z,32.50
2023-05-21T12:49:41.275Z,32.60
2023-05-21T12:52:18.074Z,32.20
2023-05-21T12:54:46.001Z,32.20
2023-05-21T12:57:17.222Z,32.00
2023-05-21T12:59:56.460Z,32.00
2023-05-21T13:02:25.412Z,31.60
2023-05-21T13:05:06.345Z,31.40
2023-05-21T13:07:35.932Z,31.10
2023-05-21T13:10:03.641Z,30.90
2023-05-21T13:12:31.385Z,31.00
2023-05-21T13:15:02.704Z,31.00
2023-05-21T13:17:29.700Z,31.00
2023-05-21T13:20:16.831Z,31.10
2023-05-21T13:22:52.938Z,31.10
2023-05-21T13:25:25.012Z,31.10
2023-05-21T13:27:53.491Z,31.10
2023-05-21T13:30:21.307Z,30.90
2023-05-21T13:32:48.310Z,30.90
2023-05-21T13:35:16.364Z,30.50
2023-05-21T13:37:43.410Z,30.30
2023-05-21T13:40:11.814Z,30.30
2023-05-21T13:42:39.108Z,30.10
2023-05-21T13:45:06.924Z,29.80
2023-05-21T13:47:34.634Z,29.80
2023-05-21T13:50:02.056Z,29.90
2023-05-21T13:52:28.767Z,29.80
2023-05-21T13:54:55.324Z,29.80
2023-05-21T13:57:22.245Z,29.90
2023-05-21T13:59:50.493Z,29.70
2023-05-21T14:02:17.197Z,29.60
2023-05-21T14:04:43.857Z,29.40
2023-05-21T14:07:11.912Z,29.20
2023-05-21T14:09:38.505Z,29.10
2023-05-21T14:12:06.686Z,29.10
2023-05-21T14:14:33.633Z,29.10
2023-05-21T14:17:00.402Z,29.10
2023-05-21T14:19:27.155Z,29.10
2023-05-21T14:21:54.105Z,29.00
2023-05-21T14:24:20.715Z,28.90
2023-05-21T14:26:47.274Z,28.80
2023-05-21T14:29:14.497Z,28.70
2023-05-21T14:31:41.219Z,28.80
2023-05-21T14:34:08.712Z,28.80
2023-05-21T14:36:36.230Z,28.70
2023-05-21T14:39:03.003Z,28.70
2023-05-21T14:41:29.717Z,28.70
2023-05-21T14:43:56.301Z,28.60
2023-05-21T14:46:23.004Z,28.60
2023-05-21T14:48:49.706Z,28.60
2023-05-21T14:51:16.389Z,28.70
2023-05-21T14:53:42.973Z,28.80
2023-05-21T14:56:09.658Z,28.80
2023-05-21T14:58:36.286Z,28.80
2023-05-21T15:01:04.291Z,28.80
2023-05-21T15:03:31.117Z,28.80
2023-05-21T15:05:58.453Z,28.90
2023-05-21T15:08:25.451Z,28.90
2023-05-21T15:10:52.180Z,28.90
2023-05-21T15:13:18.972Z,28.90
2023-05-21T15:15:46.020Z,28.90
2023-05-21T15:18:12.855Z,29.00
2023-05-21T15:20:39.587Z,28.80
2023-05-21T15:23:16.970Z,28.70
2023-05-21T15:25:44.520Z,28.70
2023-05-21T15:28:11.957Z,28.70
2023-05-21T15:30:38.617Z,28.70
2023-05-21T15:33:05.174Z,28.80
2023-05-21T15:35:31.856Z,28.80
2023-05-21T15:37:58.583Z,28.80
2023-05-21T15:40:27.133Z,28.70
2023-05-21T15:42:53.890Z,28.60
2023-05-21T15:45:20.637Z,28.50
2023-05-21T15:47:47.378Z,28.60
2023-05-21T15:50:14.120Z,28.60
2023-05-21T15:52:42.021Z,28.60
2023-05-21T15:55:09.334Z,28.70
2023-05-21T15:57:35.975Z,28.70
2023-05-21T16:00:03.163Z,28.70
2023-05-21T16:02:29.757Z,28.80
2023-05-21T16:04:56.353Z,28.90
2023-05-21T16:07:23.855Z,28.90
2023-05-21T16:09:50.429Z,28.80
2023-05-21T16:12:17.355Z,28.80
2023-05-21T16:14:43.988Z,28.70
2023-05-21T16:17:11.118Z,28.70
2023-05-21T16:19:37.803Z,28.50
2023-05-21T16:22:04.665Z,28.60
2023-05-21T16:24:31.205Z,28.50
2023-05-21T16:26:58.271Z,28.40
2023-05-21T16:29:24.822Z,28.50
2023-05-21T16:31:51.452Z,28.50
2023-05-21T16:34:18.234Z,28.50
2023-05-21T16:36:44.814Z,28.50
2023-05-21T16:39:11.390Z,28.60
2023-05-21T16:41:37.981Z,28.50
2023-05-21T16:44:04.641Z,28.50
2023-05-21T16:46:31.333Z,28.60
2023-05-21T16:48:58.058Z,28.60
2023-05-21T16:51:24.719Z,28.50
2023-05-21T16:53:51.376Z,28.40
2023-05-21T16:56:18.010Z,28.40
2023-05-21T16:58:44.560Z,28.40
2023-05-21T17:01:11.204Z,28.40
2023-05-21T17:03:38.296Z,28.40
2023-05-21T17:06:06.655Z,28.30
2023-05-21T17:08:33.277Z,28.30
2023-05-21T17:10:59.896Z,28.20
2023-05-21T17:13:26.560Z,28.10
2023-05-21T17:15:53.343Z,28.00
2023-05-21T17:18:20.072Z,28.00
2023-05-21T17:20:46.637Z,28.00
2023-05-21T17:23:13.476Z,28.00
2023-05-21T17:25:40.616Z,27.90
2023-05-21T17:28:07.673Z,27.90
2023-05-21T17:30:34.394Z,27.80
2023-05-21T17:33:03.895Z,27.80
2023-05-21T17:35:30.773Z,27.70
2023-05-21T17:37:57.502Z,27.60
2023-05-21T17:40:24.922Z,27.50
2023-05-21T17:42:52.679Z,27.40
2023-05-21T17:45:19.861Z,27.30
2023-05-21T17:47:46.573Z,27.20
2023-05-21T17:50:13.241Z,27.10
2023-05-21T17:52:39.939Z,27.00
2023-05-21T17:55:07.593Z,26.90
2023-05-21T17:57:35.430Z,26.70
2023-05-21T18:00:02.777Z,26.70
2023-05-21T18:02:29.547Z,26.60
2023-05-21T18:04:56.382Z,26.50
2023-05-21T18:07:23.002Z,26.50
2023-05-21T18:09:49.741Z,26.40
2023-05-21T18:12:16.446Z,26.30
2023-05-21T18:14:43.034Z,26.20
2023-05-21T18:17:09.740Z,26.10
2023-05-21T18:19:36.675Z,26.00
2023-05-21T18:22:04.347Z,25.80
2023-05-21T18:24:31.201Z,25.70
2023-05-21T18:26:58.051Z,25.60
2023-05-21T18:29:24.639Z,25.50
2023-05-21T18:31:51.421Z,25.30
2023-05-21T18:34:18.023Z,25.20
2023-05-21T18:36:44.589Z,25.10
2023-05-21T18:39:11.467Z,25.00
2023-05-21T18:41:39.062Z,24.80
2023-05-21T18:44:06.148Z,24.70
2023-05-21T18:46:33.845Z,24.60
2023-05-21T18:49:00.785Z,24.50
2023-05-21T18:51:27.494Z,24.30
2023-05-21T18:53:54.075Z,24.20
2023-05-21T18:56:22.020Z,24.10
2023-05-21T18:58:48.653Z,24.00
2023-05-21T19:01:15.990Z,23.80
2023-05-21T19:03:42.629Z,23.70
2023-05-21T19:06:09.278Z,23.60
2023-05-21T19:08:35.815Z,23.50
2023-05-21T19:11:02.491Z,23.40
2023-05-21T19:13:29.802Z,23.20
2023-05-21T19:15:58.261Z,23.20
2023-05-21T19:18:30.264Z,23.00
2023-05-21T19:20:57.278Z,23.00
2023-05-21T19:23:24.729Z,22.80
2023-05-21T19:25:51.680Z,22.70
2023-05-21T19:28:18.700Z,22.60
2023-05-21T19:30:46.122Z,22.50
2023-05-21T19:33:12.876Z,22.40
2023-05-21T19:35:41.394Z,22.40
2023-05-21T19:38:10.767Z,22.30
2023-05-21T19:40:37.949Z,22.20
2023-05-21T19:43:04.986Z,22.10
2023-05-21T19:45:31.652Z,22.00
2023-05-21T19:47:59.581Z,21.90
2023-05-21T19:50:28.361Z,21.90
2023-05-21T19:52:57.007Z,21.80
2023-05-21T19:55:24.470Z,21.70
2023-05-21T19:57:51.238Z,21.70
2023-05-21T20:00:18.681Z,21.60
2023-05-21T20:02:45.859Z,21.50
2023-05-21T20:05:12.625Z,21.40
2023-05-21T20:07:39.525Z,21.40
2023-05-21T20:10:06.942Z,21.30
2023-05-21T20:12:33.572Z,21.20
2023-05-21T20:15:00.842Z,21.10
2023-05-21T20:17:28.500Z,21.10
2023-05-21T20:19:57.152Z,21.00
2023-05-21T20:22:24.039Z,21.00
2023-05-21T20:24:50.898Z,20.90
2023-05-21T20:27:19.334Z,20.90
2023-05-21T20:29:46.356Z,20.80
2023-05-21T20:32:13.316Z,20.70
2023-05-21T20:34:54.448Z,20.70
2023-05-21T20:37:29.121Z,20.60
2023-05-21T20:39:57.919Z,20.60
2023-05-21T20:42:28.427Z,20.50
2023-05-21T20:44:58.859Z,20.40
2023-05-21T20:47:29.649Z,20.40
2023-05-21T20:49:59.950Z,20.40
2023-05-21T20:52:26.845Z,20.30
2023-05-21T20:54:59.475Z,20.20
2023-05-21T20:57:27.329Z,20.20
2023-05-21T20:59:54.231Z,20.20
2023-05-21T21:02:21.561Z,20.20
2023-05-21T21:04:49.754Z,20.10
2023-05-21T21:07:19.907Z,20.10
2023-05-21T21:09:47.195Z,20.10
2023-05-21T21:12:25.342Z,20.00
2023-05-21T21:14:52.913Z,20.00
2023-05-21T21:17:19.625Z,19.90
2023-05-21T21:19:46.322Z,19.90
2023-05-21T21:22:12.917Z,19.90
2023-05-21T21:24:39.556Z,19.80
2023-05-21T21:27:06.624Z,19.70
2023-05-21T21:29:33.243Z,19.70
2023-05-21T21:31:59.960Z,19.60
2023-05-21T21:34:26.580Z,19.60
2023-05-21T21:36:54.070Z,19.60
2023-05-21T21:39:20.961Z,19.50
2023-05-21T21:41:47.627Z,19.50
2023-05-21T21:44:14.206Z,19.50
2023-05-21T21:46:40.912Z,19.50
2023-05-21T21:49:07.589Z,19.40
2023-05-21T21:51:34.811Z,19.40
2023-05-21T21:54:01.519Z,19.40
2023-05-21T21:56:29.163Z,19.30
2023-05-21T21:58:55.788Z,19.30
2023-05-21T22:01:22.526Z,19.30
2023-05-21T22:03:49.310Z,19.20
2023-05-21T22:06:16.024Z,19.10
2023-05-21T22:08:42.605Z,19.10
2023-05-21T22:11:09.294Z,19.00
2023-05-21T22:13:35.906Z,19.00
2023-05-21T22:16:02.741Z,18.90
2023-05-21T22:18:40.184Z,18.90
2023-05-21T22:21:09.557Z,18.80
2023-05-21T22:23:36.925Z,18.80
2023-05-21T22:26:03.846Z,18.70
2023-05-21T22:28:30.418Z,18.60
2023-05-21T22:30:57.251Z,18.60
2023-05-21T22:33:24.360Z,18.60
2023-05-21T22:35:51.102Z,18.50
2023-05-21T22:38:18.018Z,18.50
2023-05-21T22:40:44.666Z,18.40
2023-05-21T22:43:11.312Z,18.40
2023-05-21T22:45:38.258Z,18.40
2023-05-21T22:48:08.387Z,18.40
2023-05-21T22:50:35.707Z,18.30
2023-05-21T22:53:02.421Z,18.30
2023-05-21T22:55:29.073Z,18.30
2023-05-21T22:57:55.806Z,18.20
2023-05-21T23:00:22.920Z,18.10
2023-05-21T23:02:52.222Z,18.10
2023-05-21T23:05:20.548Z,18.10
2023-05-21T23:07:47.275Z,18.00
2023-05-21T23:10:13.929Z,17.90
2023-05-21T23:12:40.935Z,17.90
2023-05-21T23:15:09.614Z,17.90
2023-05-21T23:17:37.197Z,17.80
2023-05-21T23:20:04.660Z,17.80
2023-05-21T23:22:31.546Z,17.80
2023-05-21T23:24:58.181Z,17.70
2023-05-21T23:27:24.856Z,17.70
2023-05-21T23:29:51.510Z,17.60
2023-05-21T23:32:18.142Z,17.60
2023-05-21T23:34:44.739Z,17.60
2023-05-21T23:37:11.331Z,17.50
2023-05-21T23:39:37.991Z,17.50
2023-05-21T23:42:04.936Z,17.40
2023-05-21T23:44:31.574Z,17.40
2023-05-21T23:46:58.183Z,17.30
2023-05-21T23:49:24.766Z,17.30
2023-05-21T23:51:51.518Z,17.30
2023-05-21T23:54:18.291Z,17.30
2023-05-21T23:56:45.650Z,17.20
2023-05-21T23:59:12.199Z,17.20
